Time;durP1;ratioP1;P1;durP2;ratioP2;P2;SDS_P1;SDS_P2;PMS_P1;PMS_P2;Temp;Humidity;BMP_temperature;BMP_pressure;BME280_temperature;BME280_humidity;BME280_pressure;Samples;Min_cycle;Max_cycle;Signal;HPM_P1;HPM_P2
2022/03/13 00:01:50;;;;;;;;;;;;;;;-2.42;49.33;101131.63;6243820;23;19966;-79
2022/03/13 00:04:16;;;;;;;;;;;;;;;-2.39;48.58;101129.09;6244944;23;19916;-79
2022/03/13 00:06:43;;;;;;;;;;;;;;;-2.41;47.83;101125.91;6217096;23;19915;-79
2022/03/13 00:09:12;;;;;;;;;;;;;;;-2.47;47.52;101123.69;6218363;23;20345;-79
2022/03/13 00:11:38;;;;;;;;;;;;;;;-2.48;47.34;101132.94;6244193;23;19915;-79
2022/03/13 00:14:05;;;;;;;;;;;;;;;-2.48;47.39;101131.03;6244830;23;20288;-79
2022/03/13 00:16:31;;;;;;;;;;;;;;;-2.52;47.65;101129.28;6244209;23;19927;-79
2022/03/13 00:18:59;;;;;;;;;;;;;;;-2.51;47.98;101125.44;6244604;23;19999;-79
2022/03/13 00:21:24;;;;;;;;;;;;;;;-2.41;48.27;101120.47;6217740;23;19973;-79
2022/03/13 00:23:50;;;;;;;;;;;;;;;-2.40;48.38;101116.63;6243915;23;19959;-79
2022/03/13 00:26:16;;;;;;;;;;;;;;;-2.37;48.64;101117.88;6244433;23;19915;-80
2022/03/13 00:28:45;;;;;;;;;;;;;;;-2.45;48.55;101108.66;6244450;23;19922;-79
2022/03/13 00:31:10;;;;;;;;;;;;;;;-2.37;48.75;101115.16;6244612;23;19916;-79
2022/03/13 00:33:35;;;;;;;;;;;;;;;-2.43;48.96;101111.03;6243818;23;19942;-79
2022/03/13 00:36:01;;;;;;;;;;;;;;;-2.43;48.95;101111.03;6192674;23;19920;-79
2022/03/13 00:38:26;;;;;;;;;;;;;;;-2.45;49.04;101102.41;6244514;23;19969;-79
2022/03/13 00:40:53;;;;;;;;;;;;;;;-2.44;48.84;101104.00;6244397;23;19912;-80
2022/03/13 00:43:19;;;;;;;;;;;;;;;-2.44;48.71;101096.66;6217644;23;20359;-79
2022/03/13 00:45:45;;;;;;;;;;;;;;;-2.45;49.01;101094.25;6244434;23;19922;-79
2022/03/13 00:48:10;;;;;;;;;;;;;;;-2.48;48.91;101092.19;6244356;23;19920;-79
2022/03/13 00:50:35;;;;;;;;;;;;;;;-2.50;48.71;101095.22;6244086;23;20487;-80
2022/03/13 00:53:01;;;;;;;;;;;;;;;-2.54;48.54;101090.75;6244122;23;20313;-79
2022/03/13 00:55:26;;;;;;;;;;;;;;;-2.61;48.93;101082.31;6217464;23;20285;-79
2022/03/13 00:57:52;;;;;;;;;;;;;;;-2.62;48.54;101080.72;6243559;23;19926;-79
2022/03/13 01:00:17;;;;;;;;;;;;;;;-2.67;48.36;101078.19;6244225;23;19948;-79
2022/03/13 01:02:44;;;;;;;;;;;;;;;-2.60;48.23;101078.47;6243646;23;19915;-79
2022/03/13 01:05:09;;;;;;;;;;;;;;;-2.61;47.68;101074.16;6243782;23;20357;-79
2022/03/13 01:07:35;;;;;;;;;;;;;;;-2.65;47.64;101074.00;6217225;23;19923;-79
2022/03/13 01:10:01;;;;;;;;;;;;;;;-2.70;47.79;101065.22;6244048;23;19986;-79
2022/03/13 01:12:26;;;;;;;;;;;;;;;-2.70;47.64;101068.75;6244204;23;19920;-79
2022/03/13 01:14:51;;;;;;;;;;;;;;;-2.70;47.48;101074.19;6243653;23;20474;-79
2022/03/13 01:17:17;;;;;;;;;;;;;;;-2.68;47.36;101073.88;6243927;23;19989;-79
2022/03/13 01:19:43;;;;;;;;;;;;;;;-2.71;46.71;101063.66;6243877;23;19991;-79
2022/03/13 01:22:08;;;;;;;;;;;;;;;-2.72;45.99;101067.50;6216920;23;19919;-79
2022/03/13 01:24:43;;;;;;;;;;;;;;;-2.72;46.15;101060.16;6216716;23;20002;-79
2022/03/13 01:27:09;;;;;;;;;;;;;;;-2.72;45.96;101049.28;6243448;23;19959;-79
2022/03/13 01:29:34;;;;;;;;;;;;;;;-2.81;45.94;101045.78;6243634;23;19915;-79
2022/03/13 01:32:00;;;;;;;;;;;;;;;-2.84;46.49;101051.88;6243771;23;19919;-79
2022/03/13 01:34:33;;;;;;;;;;;;;;;-2.88;46.21;101049.00;6243672;23;19998;-79
2022/03/13 01:36:58;;;;;;;;;;;;;;;-2.91;46.55;101046.91;6243755;23;20342;-79
2022/03/13 01:39:24;;;;;;;;;;;;;;;-2.87;46.51;101047.84;6243678;23;19916;-79
2022/03/13 01:41:51;;;;;;;;;;;;;;;-2.86;46.68;101035.88;6243328;23;19915;-79
2022/03/13 01:44:20;;;;;;;;;;;;;;;-2.86;47.56;101046.75;6243466;23;19921;-79
2022/03/13 01:46:46;;;;;;;;;;;;;;;-2.87;48.16;101047.09;6243242;23;19923;-79
2022/03/13 01:49:12;;;;;;;;;;;;;;;-2.88;48.17;101040.84;6243292;23;20061;-79
2022/03/13 01:51:38;;;;;;;;;;;;;;;-2.88;47.80;101037.34;6243808;23;20299;-79
2022/03/13 01:54:08;;;;;;;;;;;;;;;-2.91;47.70;101041.47;6243013;23;19923;-77
2022/03/13 01:56:34;;;;;;;;;;;;;;;-2.88;47.50;101040.84;6242907;23;19920;-78
2022/03/13 01:59:00;;;;;;;;;;;;;;;-2.90;47.87;101031.41;6243686;23;19944;-77
2022/03/13 02:04:22;;;;;;;;;;;;;;;-2.98;47.58;101030.31;6242495;23;19933;-79
2022/03/13 02:06:49;;;;;;;;;;;;;;;-2.99;47.82;101036.84;6216510;23;19915;-79
2022/03/13 02:09:14;;;;;;;;;;;;;;;-2.99;48.89;101028.72;6243113;23;20391;-79
2022/03/13 02:11:42;;;;;;;;;;;;;;;-3.03;51.14;101030.47;6243434;23;19934;-79
2022/03/13 02:14:10;;;;;;;;;;;;;;;-3.05;52.87;101031.94;6243543;23;20352;-79
2022/03/13 02:16:35;;;;;;;;;;;;;;;-3.04;53.47;101028.09;6243355;23;19919;-79
2022/03/13 02:19:01;;;;;;;;;;;;;;;-3.08;53.48;101024.44;6241885;23;19919;-79
2022/03/13 02:21:27;;;;;;;;;;;;;;;-3.12;53.19;101027.00;6215986;23;19943;-78
2022/03/13 02:23:56;;;;;;;;;;;;;;;-3.16;53.66;101028.75;6242612;23;19916;-79
2022/03/13 02:26:21;;;;;;;;;;;;;;;-3.14;54.36;101026.50;6242854;23;19920;-78
2022/03/13 02:28:51;;;;;;;;;;;;;;;-3.09;55.63;101028.25;6242624;23;19969;-79
2022/03/13 02:31:18;;;;;;;;;;;;;;;-3.07;56.43;101028.75;6216579;23;19923;-79
2022/03/13 02:33:43;;;;;;;;;;;;;;;-3.16;56.48;101028.75;6242408;23;19916;-79
2022/03/13 02:36:27;;;;;;;;;;;;;;;-3.20;56.59;101027.81;6243313;23;19923;-79
2022/03/13 02:38:52;;;;;;;;;;;;;;;-3.37;58.28;101030.53;6242675;23;19923;-79
2022/03/13 02:41:17;;;;;;;;;;;;;;;-3.43;59.03;101035.28;6243423;23;19919;-78
2022/03/13 02:43:43;;;;;;;;;;;;;;;-3.44;58.60;101035.63;6215606;23;19918;-78
2022/03/13 02:46:14;;;;;;;;;;;;;;;-3.41;58.25;101035.00;6216307;23;19919;-78
2022/03/13 02:48:40;;;;;;;;;;;;;;;-3.32;58.34;101035.78;6242723;23;19985;-79
2022/03/13 02:51:05;;;;;;;;;;;;;;;-3.34;58.80;101033.38;6242781;23;19915;-79
2022/03/13 02:53:30;;;;;;;;;;;;;;;-3.33;59.03;101035.00;6242370;23;19915;-78
2022/03/13 02:55:56;;;;;;;;;;;;;;;-3.34;59.53;101038.81;6242691;23;19915;-78
2022/03/13 02:58:22;;;;;;;;;;;;;;;-3.35;57.35;101037.22;6242854;23;19937;-79
2022/03/13 03:00:48;;;;;;;;;;;;;;;-3.28;56.51;101035.94;6216190;23;19962;-79
2022/03/13 03:03:14;;;;;;;;;;;;;;;-3.24;56.27;101021.44;6242216;23;19923;-78
2022/03/13 03:05:40;;;;;;;;;;;;;;;-3.23;54.48;101036.56;6242815;23;19985;-79
2022/03/13 03:08:06;;;;;;;;;;;;;;;-3.29;53.92;101035.16;6215756;23;19916;-79
2022/03/13 03:10:31;;;;;;;;;;;;;;;-3.33;52.65;101028.75;6216168;23;19973;-79
2022/03/13 03:12:56;;;;;;;;;;;;;;;-3.26;53.16;101036.41;6215556;23;20045;-79
2022/03/13 03:15:23;;;;;;;;;;;;;;;-3.31;52.63;101037.38;6242855;23;19927;-79
2022/03/13 03:17:49;;;;;;;;;;;;;;;-3.33;52.39;101029.56;6242428;23;20595;-78
2022/03/13 03:20:14;;;;;;;;;;;;;;;-3.38;51.34;101037.06;6242612;23;19915;-78
2022/03/13 03:22:40;;;;;;;;;;;;;;;-3.42;51.25;101026.06;6242673;23;20338;-78
2022/03/13 03:25:06;;;;;;;;;;;;;;;-3.44;51.77;101033.72;6242423;23;19915;-79
2022/03/13 03:27:31;;;;;;;;;;;;;;;-3.37;51.78;101022.38;6242366;23;19916;-78
2022/03/13 03:29:57;;;;;;;;;;;;;;;-3.41;51.58;101011.38;6242248;23;19923;-78
2022/03/13 03:32:23;;;;;;;;;;;;;;;-3.42;51.70;101020.63;6242731;23;19912;-78
2022/03/13 03:34:48;;;;;;;;;;;;;;;-3.38;52.41;101020.78;6242319;23;19922;-78
2022/03/13 03:37:14;;;;;;;;;;;;;;;-3.39;52.21;101021.91;6242799;23;19919;-79
2022/03/13 03:39:39;;;;;;;;;;;;;;;-3.47;52.00;101009.94;6242857;23;19919;-78
2022/03/13 03:42:04;;;;;;;;;;;;;;;-3.54;52.25;101011.53;6242343;23;19919;-78
2022/03/13 03:44:30;;;;;;;;;;;;;;;-3.56;52.47;101013.78;6242778;23;20007;-78
2022/03/13 03:46:55;;;;;;;;;;;;;;;-3.60;52.67;101020.94;6215822;23;19920;-79
2022/03/13 03:49:21;;;;;;;;;;;;;;;-3.71;52.17;101008.81;6242317;23;20342;-78
2022/03/13 03:51:46;;;;;;;;;;;;;;;-3.72;52.94;101010.75;6242627;23;19923;-78
2022/03/13 03:54:12;;;;;;;;;;;;;;;-3.77;52.99;101008.97;6242878;23;19915;-78
2022/03/13 03:56:37;;;;;;;;;;;;;;;-3.85;52.95;101007.06;6242946;23;20364;-78
2022/03/13 03:59:03;;;;;;;;;;;;;;;-3.93;51.88;101005.13;6242133;23;19927;-78
2022/03/13 04:01:34;;;;;;;;;;;;;;;-3.88;52.09;101007.66;6242251;23;19926;-78
2022/03/13 04:03:59;;;;;;;;;;;;;;;-3.82;52.44;101011.03;6241982;23;20349;-78
2022/03/13 04:06:25;;;;;;;;;;;;;;;-3.85;52.11;101001.63;6242838;23;19973;-78
2022/03/13 04:08:50;;;;;;;;;;;;;;;-3.80;51.53;101006.88;6242098;23;20028;-78
2022/03/13 04:11:16;;;;;;;;;;;;;;;-3.74;50.87;101004.03;6242619;23;19911;-78
2022/03/13 04:13:41;;;;;;;;;;;;;;;-3.74;50.50;101001.31;6242475;23;19923;-78
2022/03/13 04:16:08;;;;;;;;;;;;;;;-3.78;50.09;101007.38;6242209;23;19990;-79
2022/03/13 04:18:34;;;;;;;;;;;;;;;-3.86;50.28;101010.06;6215823;23;20222;-78
2022/03/13 04:20:59;;;;;;;;;;;;;;;-3.94;50.88;101011.66;6215893;23;19969;-78
2022/03/13 04:23:26;;;;;;;;;;;;;;;-4.00;51.67;101004.78;6241931;23;19916;-78
2022/03/13 04:25:51;;;;;;;;;;;;;;;-4.08;52.92;101005.56;6242218;23;19919;-78
2022/03/13 04:28:17;;;;;;;;;;;;;;;-4.05;53.33;101002.25;6240383;23;19918;-78
2022/03/13 04:30:44;;;;;;;;;;;;;;;-4.02;53.79;101001.59;6242590;23;20269;-78
2022/03/13 04:33:09;;;;;;;;;;;;;;;-4.03;54.38;101015.44;6215327;23;19950;-78
2022/03/13 04:35:34;;;;;;;;;;;;;;;-4.00;55.86;101010.19;6242213;23;20264;-78
2022/03/13 04:38:00;;;;;;;;;;;;;;;-3.92;56.00;101011.34;6241593;23;20014;-78
2022/03/13 04:40:26;;;;;;;;;;;;;;;-3.86;56.99;101010.88;6241949;23;19942;-78
2022/03/13 04:42:51;;;;;;;;;;;;;;;-3.81;56.70;101007.22;6241768;23;20321;-78
2022/03/13 04:45:18;;;;;;;;;;;;;;;-3.81;57.19;101008.00;6243742;23;20399;-78
2022/03/13 04:47:44;;;;;;;;;;;;;;;-3.83;57.57;101009.44;6243762;23;19945;-78
2022/03/13 04:50:09;;;;;;;;;;;;;;;-3.82;59.17;101011.03;6217167;23;19920;-78
2022/03/13 04:52:37;;;;;;;;;;;;;;;-3.84;59.57;101005.91;6244368;23;20277;-79
2022/03/13 04:55:03;;;;;;;;;;;;;;;-3.84;59.39;101008.63;6243760;23;20272;-79
2022/03/13 04:57:28;;;;;;;;;;;;;;;-3.89;61.35;101016.13;6243835;23;19930;-78
2022/03/13 04:59:54;;;;;;;;;;;;;;;-3.90;62.66;101015.31;6244229;23;19927;-79
2022/03/13 05:02:19;;;;;;;;;;;;;;;-3.86;62.80;101016.28;6242290;23;19916;-78
2022/03/13 05:04:44;;;;;;;;;;;;;;;-3.86;63.53;101012.78;6243819;23;20314;-79
2022/03/13 05:07:10;;;;;;;;;;;;;;;-3.88;63.56;101013.09;6243660;23;19919;-78
2022/03/13 05:09:36;;;;;;;;;;;;;;;-3.85;64.76;101008.97;6244054;23;19946;-78
2022/03/13 05:12:04;;;;;;;;;;;;;;;-3.87;64.37;101014.69;6244278;23;19915;-79
2022/03/13 05:14:30;;;;;;;;;;;;;;;-3.87;64.79;101008.47;6243665;23;19998;-78
2022/03/13 05:16:55;;;;;;;;;;;;;;;-3.85;65.94;101009.75;6243554;23;19950;-79
2022/03/13 05:19:21;;;;;;;;;;;;;;;-3.79;65.63;101008.47;6242953;23;19919;-78
2022/03/13 05:21:50;;;;;;;;;;;;;;;-3.68;65.16;100997.34;6244883;23;19923;-78
2022/03/13 05:24:16;;;;;;;;;;;;;;;-3.59;64.64;101006.25;6244636;23;19912;-78
2022/03/13 05:26:41;;;;;;;;;;;;;;;-3.51;64.07;101006.25;6245090;23;19919;-78
2022/03/13 05:29:07;;;;;;;;;;;;;;;-3.43;63.49;101012.78;6244401;23;19916;-78
2022/03/13 05:31:32;;;;;;;;;;;;;;;-3.35;62.31;101014.72;6245375;23;19916;-79
2022/03/13 05:34:00;;;;;;;;;;;;;;;-3.30;62.24;101011.84;6217523;23;19970;-79
2022/03/13 05:36:25;;;;;;;;;;;;;;;-3.25;62.07;101014.41;6243742;23;20254;-79
2022/03/13 05:38:51;;;;;;;;;;;;;;;-3.20;62.06;101016.16;6243777;23;19915;-78
2022/03/13 05:41:16;;;;;;;;;;;;;;;-3.10;61.77;101011.19;6244798;23;19958;-78
2022/03/13 05:43:42;;;;;;;;;;;;;;;-3.01;61.23;101019.31;6244561;23;19926;-78
2022/03/13 05:46:08;;;;;;;;;;;;;;;-2.92;61.30;101011.97;6244086;23;19912;-79
2022/03/13 05:48:33;;;;;;;;;;;;;;;-2.83;60.83;101016.22;6217946;23;20252;-78
2022/03/13 05:50:59;;;;;;;;;;;;;;;-2.73;60.41;101014.28;6244803;23;20088;-78
2022/03/13 05:53:24;;;;;;;;;;;;;;;-2.63;60.03;101016.66;6244098;23;19923;-78
2022/03/13 05:55:50;;;;;;;;;;;;;;;-2.59;59.52;101014.91;6244348;23;20369;-77
2022/03/13 05:58:15;;;;;;;;;;;;;;;-2.52;59.27;101020.63;6217883;23;19915;-78
2022/03/13 06:00:41;;;;;;;;;;;;;;;-2.48;59.31;101006.06;6244854;23;20330;-78
2022/03/13 06:03:06;;;;;;;;;;;;;;;-2.43;59.20;101008.59;6243209;23;19923;-78
2022/03/13 06:05:34;;;;;;;;;;;;;;;-2.40;58.54;100999.78;6243338;23;20462;-77
2022/03/13 06:07:59;;;;;;;;;;;;;;;-2.33;58.30;100996.56;6214698;23;19919;-85
2022/03/13 06:10:25;;;;;;;;;;;;;;;-2.30;58.02;101014.16;6241013;23;20302;-84
2022/03/13 06:12:51;;;;;;;;;;;;;;;-2.19;57.55;101023.50;6214352;23;20285;-84
2022/03/13 06:15:17;;;;;;;;;;;;;;;-2.29;57.16;101029.31;6214778;23;19951;-85
2022/03/13 06:17:43;;;;;;;;;;;;;;;-2.37;57.71;101018.16;6214399;23;20284;-85
2022/03/13 06:20:13;;;;;;;;;;;;;;;-2.43;58.40;101018.66;6239126;23;19919;-85
2022/03/13 06:22:38;;;;;;;;;;;;;;;-2.43;58.66;101018.66;6214310;23;19916;-85
2022/03/13 06:25:05;;;;;;;;;;;;;;;-2.27;58.50;101027.88;6242286;23;20021;-85
2022/03/13 06:27:30;;;;;;;;;;;;;;;-2.10;58.50;101018.84;6242890;23;20371;-84
2022/03/13 06:30:13;;;;;;;;;;;;;;;-1.92;57.74;101023.84;6242093;23;20349;-85
2022/03/13 06:32:58;;;;;;;;;;;;;;;-1.55;57.40;101026.78;6243006;23;19916;-85
2022/03/13 06:35:24;;;;;;;;;;;;;;;-1.07;55.64;101032.47;6242140;23;19998;-85
2022/03/13 06:37:50;;;;;;;;;;;;;;;-1.01;54.45;101031.09;6242811;23;19947;-85
2022/03/13 06:40:17;;;;;;;;;;;;;;;-0.96;53.87;101028.19;6216454;23;19925;-85
2022/03/13 06:42:44;;;;;;;;;;;;;;;-0.82;53.81;101029.81;6242571;23;19938;-85
2022/03/13 06:45:10;;;;;;;;;;;;;;;-0.57;52.90;101020.56;6242913;23;20333;-85
2022/03/13 06:47:36;;;;;;;;;;;;;;;-0.35;52.37;101014.69;6242547;23;19915;-80
2022/03/13 06:50:02;;;;;;;;;;;;;;;-0.20;51.97;101014.00;6241993;23;19926;-79
2022/03/13 06:52:27;;;;;;;;;;;;;;;0.01;51.72;101005.69;6243629;23;19916;-79
2022/03/13 06:54:52;;;;;;;;;;;;;;;0.17;50.49;101024.88;6243010;23;19929;-79
2022/03/13 06:57:20;;;;;;;;;;;;;;;0.38;50.37;101020.09;6243835;23;19954;-79
2022/03/13 06:59:46;;;;;;;;;;;;;;;0.64;50.12;101023.22;6242937;23;20373;-79
2022/03/13 07:02:13;;;;;;;;;;;;;;;0.87;49.00;101021.53;6242126;23;19997;-79
2022/03/13 07:04:38;;;;;;;;;;;;;;;1.00;48.79;101003.16;6241881;23;20524;-79
2022/03/13 07:07:06;;;;;;;;;;;;;;;1.07;48.22;101027.13;6241943;23;19947;-79
2022/03/13 07:09:31;;;;;;;;;;;;;;;1.07;48.35;101024.41;6241780;23;19916;-79
2022/03/13 07:11:57;;;;;;;;;;;;;;;1.15;48.54;101020.72;6242217;23;19916;-79
2022/03/13 07:14:24;;;;;;;;;;;;;;;1.02;49.49;101021.91;6242269;23;19993;-79
2022/03/13 07:16:49;;;;;;;;;;;;;;;1.24;49.45;101018.63;6241740;23;20650;-79
2022/03/13 07:19:15;;;;;;;;;;;;;;;1.56;49.07;101008.50;6242670;23;19947;-79
2022/03/13 07:21:40;;;;;;;;;;;;;;;1.76;48.48;101018.38;6242736;23;19947;-79
2022/03/13 07:24:06;;;;;;;;;;;;;;;1.98;46.62;101006.00;6242152;23;19919;-79
2022/03/13 07:26:31;;;;;;;;;;;;;;;1.91;46.02;101003.09;6242791;23;19911;-79
2022/03/13 07:28:56;;;;;;;;;;;;;;;1.90;44.70;101007.78;6243210;23;20346;-79
2022/03/13 07:31:22;;;;;;;;;;;;;;;2.06;44.07;101003.09;6252249;22;19951;-82
2022/03/13 07:33:49;;;;;;;;;;;;;;;2.23;43.58;101002.69;6241515;23;20340;-79
2022/03/13 07:36:15;;;;;;;;;;;;;;;2.49;42.37;100998.53;6213549;23;19947;-79
2022/03/13 07:38:40;;;;;;;;;;;;;;;2.27;41.52;100992.59;6241282;23;20003;-79
2022/03/13 07:41:06;;;;;;;;;;;;;;;2.07;41.56;101001.13;6252319;23;19920;-80
2022/03/13 07:43:33;;;;;;;;;;;;;;;1.99;41.73;101004.84;6260314;23;20018;-79
2022/03/13 07:46:05;;;;;;;;;;;;;;;2.30;41.14;100999.31;6202575;23;19919;-78
2022/03/13 07:48:32;;;;;;;;;;;;;;;2.45;40.39;100993.00;6246080;23;20010;-78
2022/03/13 07:50:58;;;;;;;;;;;;;;;2.09;40.73;101005.09;6240120;23;20007;-79
2022/03/13 07:53:27;;;;;;;;;;;;;;;2.14;41.36;101002.09;6213088;23;19947;-79
2022/03/13 07:55:53;;;;;;;;;;;;;;;2.37;40.20;100999.47;6240399;23;19934;-80
2022/03/13 07:58:24;;;;;;;;;;;;;;;2.59;39.81;101003.47;6254408;23;19919;-79
2022/03/13 08:00:53;;;;;;;;;;;;;;;2.90;39.35;101008.00;6231874;23;19938;-80
2022/03/13 08:03:25;;;;;;;;;;;;;;;2.88;39.28;101005.59;6260642;23;19999;-86
2022/03/13 08:05:54;;;;;;;;;;;;;;;3.08;39.46;101000.88;6246056;23;19947;-86
2022/03/13 08:08:24;;;;;;;;;;;;;;;3.33;38.99;101007.63;6206247;23;19923;-85
2022/03/13 08:10:50;;;;;;;;;;;;;;;3.24;39.16;100985.94;6230356;23;19958;-85
2022/03/13 08:13:15;;;;;;;;;;;;;;;3.25;39.59;101000.44;6224571;23;19911;-85
2022/03/13 08:15:41;;;;;;;;;;;;;;;3.32;39.37;100995.06;6243571;23;19921;-85
2022/03/13 08:18:09;;;;;;;;;;;;;;;3.76;38.73;100993.47;6239635;23;19919;-86
2022/03/13 08:20:35;;;;;;;;;;;;;;;3.89;38.60;100987.78;6217141;23;19916;-86
2022/03/13 08:23:00;;;;;;;;;;;;;;;4.08;38.50;100987.72;6227369;23;20003;-86
2022/03/13 08:25:26;;;;;;;;;;;;;;;4.05;38.72;100982.94;6244941;23;20249;-85
2022/03/13 08:27:54;;;;;;;;;;;;;;;4.02;39.05;100997.41;6243842;23;20305;-86
2022/03/13 08:30:22;;;;;;;;;;;;;;;4.08;38.89;100987.72;6259805;23;19916;-85
2022/03/13 08:32:48;;;;;;;;;;;;;;;4.27;38.96;100982.09;6198620;23;19915;-86
2022/03/13 08:35:13;;;;;;;;;;;;;;;4.38;38.33;100983.00;6216732;23;19916;-86
2022/03/13 08:37:40;;;;;;;;;;;;;;;4.60;37.88;100971.16;6217982;23;19915;-85
2022/03/13 08:40:26;;;;;;;;;;;;;;;4.83;37.54;100982.00;6245364;23;19915;-84
2022/03/13 08:42:52;;;;;;;;;;;;;;;5.15;37.46;100969.41;6193050;23;19911;-79
2022/03/13 08:45:18;;;;;;;;;;;;;;;5.43;37.06;100973.59;6215525;23;20241;-79
2022/03/13 08:47:43;;;;;;;;;;;;;;;5.66;36.05;100967.91;6244544;23;19919;-79
2022/03/13 08:50:09;;;;;;;;;;;;;;;5.32;35.95;100962.50;6243189;23;19915;-79
2022/03/13 08:52:36;;;;;;;;;;;;;;;4.86;36.70;100980.47;6246912;23;19919;-80
2022/03/13 08:55:22;;;;;;;;;;;;;;;4.94;37.09;100982.13;6229196;23;19965;-80
2022/03/13 08:58:08;;;;;;;;;;;;;;;5.43;36.44;100985.38;6223086;23;19918;-81
2022/03/13 09:00:34;;;;;;;;;;;;;;;5.67;35.17;100973.00;6249326;23;19994;-78
2022/03/13 09:03:00;;;;;;;;;;;;;;;5.66;34.98;100965.94;6249092;23;19955;-78
2022/03/13 09:05:26;;;;;;;;;;;;;;;6.19;34.72;100966.31;6222555;23;20286;-80
2022/03/13 09:07:52;;;;;;;;;;;;;;;6.34;33.28;100975.47;6171441;23;19916;-79
2022/03/13 09:10:20;;;;;;;;;;;;;;;6.25;34.08;100977.78;6254049;23;19916;-80
2022/03/13 09:12:54;;;;;;;;;;;;;;;6.25;32.80;100981.31;6223927;23;19934;-78
2022/03/13 09:15:20;;;;;;;;;;;;;;;6.18;32.96;100969.47;6250190;23;19919;-80
2022/03/13 09:17:53;;;;;;;;;;;;;;;6.40;33.52;100971.94;6189116;23;19912;-78
2022/03/13 09:20:19;;;;;;;;;;;;;;;6.74;33.54;100969.75;6243279;23;20380;-79
2022/03/13 09:22:44;;;;;;;;;;;;;;;6.98;32.00;100969.03;6243469;23;19919;-81
2022/03/13 09:25:09;;;;;;;;;;;;;;;6.33;33.01;100960.91;6243203;23;20235;-80
2022/03/13 09:27:35;;;;;;;;;;;;;;;6.35;32.97;100961.28;6215544;23;19919;-79
2022/03/13 09:30:00;;;;;;;;;;;;;;;6.29;33.09;100962.84;6243039;23;20343;-78
2022/03/13 09:32:26;;;;;;;;;;;;;;;6.27;33.14;100956.91;6242532;23;20113;-79
2022/03/13 09:34:51;;;;;;;;;;;;;;;6.81;33.26;100957.94;6242457;23;20252;-79
2022/03/13 09:37:17;;;;;;;;;;;;;;;6.78;31.73;100970.56;6243114;23;19916;-78
2022/03/13 09:39:42;;;;;;;;;;;;;;;7.03;32.39;100965.91;6244228;23;19962;-77
2022/03/13 09:42:08;;;;;;;;;;;;;;;6.92;31.08;100961.50;6244305;23;20002;-78
2022/03/13 09:44:33;;;;;;;;;;;;;;;7.31;30.56;100956.88;6243564;23;19919;-78
2022/03/13 09:46:59;;;;;;;;;;;;;;;7.25;30.76;100955.69;6243648;23;19950;-78
2022/03/13 09:49:24;;;;;;;;;;;;;;;7.42;30.62;100946.63;6243887;23;19943;-78
2022/03/13 09:51:50;;;;;;;;;;;;;;;7.78;28.83;100954.91;6241516;23;19951;-78
2022/03/13 09:54:16;;;;;;;;;;;;;;;7.68;29.00;100950.19;6239208;23;19916;-78
2022/03/13 09:56:41;;;;;;;;;;;;;;;7.60;29.29;100959.66;6243107;23;19919;-78
2022/03/13 09:59:07;;;;;;;;;;;;;;;7.86;29.37;100953.72;6239240;23;19916;-79
2022/03/13 10:01:33;;;;;;;;;;;;;;;8.19;28.49;100936.69;6241110;23;20002;-79
2022/03/13 10:03:59;;;;;;;;;;;;;;;7.88;28.80;100946.63;6241044;23;20028;-78
2022/03/13 10:06:25;;;;;;;;;;;;;;;7.87;28.40;100936.75;6243076;23;20476;-78
2022/03/13 10:08:50;;;;;;;;;;;;;;;8.09;26.97;100936.72;6214324;23;19992;-79
2022/03/13 10:11:16;;;;;;;;;;;;;;;8.01;25.27;100930.41;6241674;23;19988;-77
2022/03/13 10:13:49;;;;;;;;;;;;;;;8.20;26.14;100920.91;6241462;23;20248;-78
2022/03/13 10:16:19;;;;;;;;;;;;;;;8.08;27.90;100932.38;6241410;23;19916;-78
2022/03/13 10:18:45;;;;;;;;;;;;;;;7.97;27.70;100919.38;6241938;23;20269;-77
2022/03/13 10:21:12;;;;;;;;;;;;;;;8.37;26.03;100909.03;6242265;23;19920;-78
2022/03/13 10:23:38;;;;;;;;;;;;;;;8.49;26.44;100916.09;6214551;23;19958;-78
2022/03/13 10:26:05;;;;;;;;;;;;;;;8.72;26.06;100908.88;6215308;23;19927;-78
2022/03/13 10:28:37;;;;;;;;;;;;;;;8.78;24.73;100895.38;6241109;23;20273;-79
2022/03/13 10:31:03;;;;;;;;;;;;;;;8.89;24.77;100904.44;6242350;23;19995;-79
2022/03/13 10:33:48;;;;;;;;;;;;;;;9.12;24.06;100899.13;6240818;23;19951;-79
2022/03/13 10:36:17;;;;;;;;;;;;;;;9.18;25.29;100891.94;6240523;23;19970;-79
2022/03/13 10:38:44;;;;;;;;;;;;;;;9.16;25.71;100897.13;6214553;23;19922;-78
2022/03/13 10:41:10;;;;;;;;;;;;;;;9.51;25.87;100889.72;6241665;23;20305;-78
2022/03/13 10:43:46;;;;;;;;;;;;;;;9.45;25.45;100883.06;6214197;23;19919;-78
2022/03/13 10:46:16;;;;;;;;;;;;;;;9.19;25.89;100882.47;6214202;23;20002;-78
2022/03/13 10:48:42;;;;;;;;;;;;;;;9.31;26.19;100884.75;6215907;23;19916;-78
2022/03/13 10:51:12;;;;;;;;;;;;;;;9.44;25.49;100878.69;6216478;23;19935;-79
2022/03/13 10:53:41;;;;;;;;;;;;;;;9.52;25.01;100877.44;6214703;23;19922;-79
2022/03/13 10:56:08;;;;;;;;;;;;;;;9.76;24.47;100876.41;6241630;23;19916;-79
2022/03/13 10:58:35;;;;;;;;;;;;;;;9.80;22.80;100872.41;6240641;23;19982;-79
2022/03/13 11:01:05;;;;;;;;;;;;;;;9.80;24.41;100871.63;6241275;23;19915;-79
2022/03/13 11:03:30;;;;;;;;;;;;;;;9.87;24.21;100868.78;6240754;23;19973;-79
2022/03/13 11:05:59;;;;;;;;;;;;;;;10.02;24.31;100866.66;6241923;23;19922;-79
2022/03/13 11:08:26;;;;;;;;;;;;;;;9.96;23.54;100862.75;6213578;23;20341;-79
2022/03/13 11:10:52;;;;;;;;;;;;;;;10.13;24.64;100864.53;6242198;23;19927;-79
2022/03/13 11:13:18;;;;;;;;;;;;;;;10.16;23.00;100864.53;6240728;23;19956;-78
2022/03/13 11:15:44;;;;;;;;;;;;;;;10.39;21.99;100852.78;6241505;23;19915;-79
2022/03/13 11:18:10;;;;;;;;;;;;;;;10.40;22.80;100854.31;6213767;23;19920;-78
2022/03/13 11:20:35;;;;;;;;;;;;;;;9.96;23.03;100855.22;6241499;23;19918;-78
2022/03/13 11:23:01;;;;;;;;;;;;;;;10.09;22.04;100850.72;6241249;23;20339;-78
2022/03/13 11:25:27;;;;;;;;;;;;;;;10.14;21.14;100852.25;6240858;23;19947;-78
2022/03/13 11:27:52;;;;;;;;;;;;;;;10.02;20.43;100850.81;6241473;23;19954;-78
2022/03/13 11:30:29;;;;;;;;;;;;;;;10.40;20.70;100842.44;6214794;23;19922;-78
2022/03/13 11:32:55;;;;;;;;;;;;;;;10.77;20.54;100845.88;6214539;23;20250;-78
2022/03/13 11:35:21;;;;;;;;;;;;;;;10.97;19.32;100848.75;6240178;23;19935;-78
2022/03/13 11:37:48;;;;;;;;;;;;;;;10.97;18.38;100843.22;6212740;23;19915;-78
2022/03/13 11:40:14;;;;;;;;;;;;;;;10.91;19.52;100825.47;6239820;23;19973;-77
2022/03/13 11:42:47;;;;;;;;;;;;;;;11.05;19.72;100838.31;6240479;23;20030;-77
2022/03/13 11:45:32;;;;;;;;;;;;;;;10.80;18.47;100832.41;6239596;23;19919;-77
2022/03/13 11:48:14;;;;;;;;;;;;;;;10.39;18.90;100813.94;6239038;23;19955;-78
2022/03/13 11:50:54;;;;;;;;;;;;;;;10.65;19.77;100823.47;6241039;23;19919;-78
2022/03/13 11:53:19;;;;;;;;;;;;;;;10.82;18.91;100819.66;6239786;23;20338;-78
2022/03/13 11:55:57;;;;;;;;;;;;;;;10.96;19.17;100822.19;6242860;23;19961;-77
2022/03/13 11:58:41;;;;;;;;;;;;;;;11.26;18.37;100809.44;6241437;23;19915;-78
2022/03/13 12:01:07;;;;;;;;;;;;;;;11.26;18.17;100807.44;6242265;23;19915;-78
2022/03/13 12:03:33;;;;;;;;;;;;;;;11.37;18.28;100812.78;6241387;23;19986;-78
2022/03/13 12:05:59;;;;;;;;;;;;;;;10.64;18.06;100808.81;6242561;23;19954;-78
2022/03/13 12:08:26;;;;;;;;;;;;;;;10.40;19.07;100803.63;6241528;23;20448;-78
2022/03/13 12:10:52;;;;;;;;;;;;;;;10.77;18.58;100803.47;6242304;23;19919;-78
2022/03/13 12:13:19;;;;;;;;;;;;;;;10.94;19.49;100813.53;6241769;23;19916;-78
2022/03/13 12:15:44;;;;;;;;;;;;;;;11.18;19.58;100806.78;6214344;23;19918;-78
2022/03/13 12:18:23;;;;;;;;;;;;;;;11.10;18.42;100801.75;6242027;23;19919;-78
2022/03/13 12:20:52;;;;;;;;;;;;;;;11.38;18.80;100792.16;6241900;23;19916;-78
2022/03/13 12:23:27;;;;;;;;;;;;;;;11.36;18.35;100791.81;6238121;23;19920;-78
2022/03/13 12:26:11;;;;;;;;;;;;;;;10.93;19.09;100786.97;6187472;23;19919;-78
2022/03/13 12:28:37;;;;;;;;;;;;;;;11.15;19.75;100788.19;6242199;23;20349;-78
2022/03/13 12:31:02;;;;;;;;;;;;;;;10.98;19.18;100777.38;6213728;23;19920;-78
2022/03/13 12:33:29;;;;;;;;;;;;;;;10.82;18.95;100780.81;6214383;23;20326;-78
2022/03/13 12:35:56;;;;;;;;;;;;;;;10.51;19.20;100779.31;6189239;23;19916;-78
2022/03/13 12:38:31;;;;;;;;;;;;;;;10.98;19.56;100780.94;6240677;23;19969;-78
2022/03/13 12:40:58;;;;;;;;;;;;;;;11.21;18.87;100772.59;6213965;23;19951;-78
2022/03/13 12:43:25;;;;;;;;;;;;;;;11.22;18.25;100776.94;6215096;23;19915;-78